Current Weather

Fitch H Beach

Charlotte, Michigan (KFPK)

Report from: Wednesday, May 29, 2024 7:15 PM EDT
Current time: Wednesday, May 29, 2024 7:29 PM EDT

Nearby weather – Weather history – Daily summaries
Weather forecast

Temperature18.0°C (64.4°F)
Dew point9.0°C (48.2°F)
Winds 2 kts (1 m/s, 2.3 mph) Vrb
Winds variableWinds variable
Visibility10 mi. (16.1 km)
Clouds Few clouds 5,000 ft. (1,524 m)
Few clouds 6,500 ft. (1,981 m)
Altimeter30.10 in.Hg (1019 mB)
Relative humidity56 %
Density altitude313 ft. (95 m)
Remarks Fully automated report
Automated weather observing station with precipitation discriminator
Flight conditions Visual Meteorological Conditions
Raw dataKFPK 292315Z AUTO VRB02KT 10SM FEW050 FEW065 18/09 A3010 RMK AO2
An error has occurred. This application may no longer respond until reloaded. Reload 🗙